Time;durP1;ratioP1;P1;durP2;ratioP2;P2;SDS_P1;SDS_P2;PMS_P1;PMS_P2;Temp;Humidity;BMP_temperature;BMP_pressure;BME280_temperature;BME280_humidity;BME280_pressure;Samples;Min_cycle;Max_cycle;Signal;HPM_P1;HPM_P2
2022/03/09 05:31:50;;;;;;;;;59.33;48.67;;;;;10.52;51.27;101593.72;1426945;26;46135;-72
2022/03/09 05:34:15;;;;;;;;;56.00;47.00;;;;;10.44;51.09;101587.72;5036214;28;45384;-73
2022/03/09 05:36:41;;;;;;;;;58.00;44.33;;;;;10.42;50.82;101602.09;5036232;28;45356;-73
2022/03/09 05:39:07;;;;;;;;;59.67;48.33;;;;;10.36;50.74;101608.53;5036598;28;45264;-72
2022/03/09 05:41:33;;;;;;;;;59.33;45.67;;;;;10.32;50.85;101611.34;5035964;28;45480;-73
2022/03/09 05:43:59;;;;;;;;;59.00;46.67;;;;;10.28;50.65;101609.69;5031900;28;46069;-72
2022/03/09 05:46:25;;;;;;;;;63.33;46.33;;;;;10.17;50.49;101613.59;5034291;28;45437;-73
2022/03/09 05:48:50;;;;;;;;;60.00;46.33;;;;;10.04;50.22;101617.50;5034410;28;45469;-73
2022/03/09 05:51:15;;;;;;;;;63.00;49.00;;;;;9.95;50.79;101624.97;5034883;28;45571;-74
2022/03/09 05:53:41;;;;;;;;;53.00;42.33;;;;;9.79;50.72;101619.16;5033956;28;46092;-72
2022/03/09 05:56:06;;;;;;;;;52.00;43.67;;;;;9.76;50.71;101630.84;5035631;28;45370;-73
2022/03/09 05:58:32;;;;;;;;;52.33;43.67;;;;;9.72;51.10;101631.84;5035005;28;45433;-74
2022/03/09 06:00:57;;;;;;;;;58.00;46.67;;;;;9.68;51.05;101630.19;5035347;28;45365;-74
2022/03/09 06:03:23;;;;;;;;;52.33;44.00;;;;;9.60;51.15;101634.88;5035576;28;46006;-72
2022/03/09 06:05:48;;;;;;;;;53.33;43.33;;;;;9.53;51.43;101622.56;5035570;28;45279;-74
2022/03/09 06:08:13;;;;;;;;;60.67;46.67;;;;;9.47;51.82;101628.97;5035483;28;45373;-73
2022/03/09 06:10:39;;;;;;;;;57.00;44.00;;;;;9.30;52.49;101608.94;5035338;28;45421;-74
2022/03/09 06:13:04;;;;;;;;;53.67;45.00;;;;;9.37;52.34;101634.59;5034958;28;45425;-74
2022/03/09 06:15:30;;;;;;;;;60.00;48.00;;;;;9.38;52.62;101644.38;5035446;28;45413;-76
2022/03/09 06:17:55;;;;;;;;;55.00;41.67;;;;;9.31;52.41;101642.78;5035413;28;45506;-71
2022/03/09 06:20:23;;;;;;;;;55.33;38.33;;;;;9.26;52.77;101642.06;5035476;28;45355;-72
2022/03/09 06:22:49;;;;;;;;;56.00;41.00;;;;;9.19;53.42;101637.75;5035372;28;45484;-72
2022/03/09 06:25:15;;;;;;;;;60.00;45.33;;;;;9.19;53.13;101649.34;5034998;28;45283;-71
2022/03/09 06:27:42;;;;;;;;;40.00;36.67;;;;;9.19;53.84;101648.44;5035769;28;45330;-76
2022/03/09 06:30:08;;;;;;;;;46.33;39.33;;;;;9.14;53.45;101637.00;5034995;28;45457;-78
2022/03/09 06:32:34;;;;;;;;;62.33;46.00;;;;;9.20;53.25;101653.78;5035120;28;46369;-72
2022/03/09 06:35:01;;;;;;;;;58.67;42.00;;;;;9.18;53.69;101655.63;5035227;28;45291;-73
2022/03/09 06:37:26;;;;;;;;;51.67;40.67;;;;;9.18;53.37;101660.97;5037910;28;45397;-77
2022/03/09 06:39:51;;;;;;;;;55.00;43.33;;;;;9.15;53.66;101669.06;5034013;28;46267;-75
2022/03/09 06:42:17;;;;;;;;;37.67;36.67;;;;;9.01;54.15;101640.00;5035227;28;46116;-77
2022/03/09 06:44:42;;;;;;;;;58.00;46.33;;;;;9.12;53.52;101663.78;5034569;28;45427;-72
2022/03/09 06:47:07;;;;;;;;;57.33;46.00;;;;;9.03;53.88;101659.56;5035228;28;45346;-76
2022/03/09 06:49:33;;;;;;;;;42.67;33.00;;;;;9.05;53.93;101673.78;5034794;28;45539;-75
2022/03/09 06:51:58;;;;;;;;;54.00;39.00;;;;;9.01;53.77;101666.75;5032871;28;46751;-73
2022/03/09 06:54:24;;;;;;;;;54.33;43.67;;;;;9.01;54.32;101672.09;5032580;28;45364;-72
2022/03/09 06:56:51;;;;;;;;;57.67;44.67;;;;;8.96;54.25;101667.75;5034835;28;45339;-71
2022/03/09 06:59:17;;;;;;;;;49.33;41.67;;;;;9.00;54.40;101673.03;5034247;28;45592;-68
2022/03/09 07:01:42;;;;;;;;;55.00;42.00;;;;;9.00;54.14;101674.81;5034981;28;45485;-68
2022/03/09 07:04:07;;;;;;;;;57.00;43.33;;;;;8.98;53.23;101679.31;5034714;28;45407;-70
2022/03/09 07:06:33;;;;;;;;;56.67;46.33;;;;;8.95;54.52;101684.72;5034814;28;45306;-69
2022/03/09 07:08:58;;;;;;;;;54.67;44.00;;;;;8.90;55.02;101679.50;5034856;28;45364;-70
2022/03/09 07:11:23;;;;;;;;;51.67;42.67;;;;;8.87;54.36;101668.88;5032288;28;46913;-69
2022/03/09 07:13:49;;;;;;;;;59.33;45.33;;;;;8.85;54.82;101672.47;5034655;28;45428;-71
2022/03/09 07:16:14;;;;;;;;;61.33;45.00;;;;;8.94;54.92;101694.53;5035098;28;45534;-70
2022/03/09 07:18:39;;;;;;;;;50.67;41.33;;;;;8.99;54.25;101700.69;5034347;28;45365;-69
2022/03/09 07:21:05;;;;;;;;;59.33;44.67;;;;;8.99;55.17;101705.16;5034488;28;46211;-71
2022/03/09 07:23:30;;;;;;;;;57.00;43.33;;;;;8.97;55.37;101694.47;5034285;28;45568;-70
2022/03/09 07:25:55;;;;;;;;;54.00;42.67;;;;;9.02;55.82;101695.22;5034980;28;45397;-70
2022/03/09 07:28:21;;;;;;;;;54.33;42.33;;;;;9.02;55.78;101699.69;5034227;28;45382;-70
2022/03/09 07:30:48;;;;;;;;;58.33;44.33;;;;;9.10;55.67;101708.44;5034174;28;47744;-70
2022/03/09 07:33:13;;;;;;;;;64.67;45.33;;;;;9.14;55.79;101715.47;5032807;28;45487;-71
2022/03/09 07:35:39;;;;;;;;;52.67;40.33;;;;;9.24;56.13;101708.97;5034600;28;45173;-70
2022/03/09 07:38:06;;;;;;;;;59.33;46.33;;;;;9.32;55.58;101706.97;5034381;28;45292;-70
2022/03/09 07:40:31;;;;;;;;;52.33;39.33;;;;;9.40;56.51;101714.81;5034056;28;47113;-71
2022/03/09 07:42:56;;;;;;;;;56.33;42.00;;;;;9.42;56.65;101711.19;5032584;28;45993;-71
2022/03/09 07:45:22;;;;;;;;;55.67;44.00;;;;;9.44;56.86;101712.00;5033981;28;45414;-69
2022/03/09 07:47:47;;;;;;;;;54.33;39.67;;;;;9.56;57.25;101716.16;5033979;28;45438;-70
2022/03/09 07:50:13;;;;;;;;;53.00;42.00;;;;;9.60;56.49;101717.88;5034363;28;45410;-71
2022/03/09 07:52:39;;;;;;;;;54.00;41.67;;;;;9.62;57.04;101721.34;5034164;28;45496;-71
2022/03/09 07:55:05;;;;;;;;;53.67;41.67;;;;;9.61;56.72;101710.72;5034176;28;45528;-69
2022/03/09 07:57:31;;;;;;;;;50.25;39.00;;;;;9.71;56.88;101726.47;5033905;28;45369;-70
2022/03/09 07:59:56;;;;;;;;;44.00;38.50;;;;;9.77;57.20;101725.44;5033880;28;46571;-71
2022/03/09 08:02:21;;;;;;;;;41.25;36.75;;;;;9.82;57.49;101727.06;5033773;28;46222;-70
2022/03/09 08:04:47;;;;;;;;;54.00;42.25;;;;;9.87;56.94;101743.88;5034312;28;45472;-70
2022/03/09 08:07:12;;;;;;;;;53.75;43.00;;;;;9.93;56.39;101737.50;5033798;28;45365;-70
2022/03/09 08:09:37;;;;;;;;;50.25;40.50;;;;;9.90;56.58;101724.19;5034072;28;46200;-71
2022/03/09 08:12:03;;;;;;;;;49.00;38.25;;;;;9.79;56.22;101704.84;5036489;28;45462;-70
2022/03/09 08:14:29;;;;;;;;;51.50;41.25;;;;;10.03;56.57;101733.66;5037452;28;45402;-69
2022/03/09 08:16:54;;;;;;;;;41.25;37.25;;;;;10.06;57.36;101736.22;5036933;28;45304;-70
2022/03/09 08:19:19;;;;;;;;;46.25;37.75;;;;;10.08;57.11;101721.00;5037113;28;46034;-70
2022/03/09 08:21:45;;;;;;;;;49.75;39.25;;;;;10.16;56.75;101729.69;5037190;28;45405;-70
2022/03/09 08:24:10;;;;;;;;;45.00;38.50;;;;;10.23;57.08;101736.66;5037724;28;45469;-71
2022/03/09 08:26:35;;;;;;;;;42.25;35.25;;;;;10.27;57.12;101740.16;5037145;28;45345;-74
2022/03/09 08:29:01;;;;;;;;;40.25;34.50;;;;;10.28;56.41;101735.66;5037284;28;45259;-74
2022/03/09 08:31:27;;;;;;;;;41.50;35.75;;;;;10.28;56.01;101743.72;5036990;28;45246;-73
2022/03/09 08:33:52;;;;;;;;;22.50;20.50;;;;;10.27;56.68;101740.16;5033078;28;45510;-74
2022/03/09 08:36:17;;;;;;;;;38.50;35.50;;;;;10.20;57.25;101733.22;5032989;28;46191;-75
2022/03/09 08:38:43;;;;;;;;;39.75;36.25;;;;;10.31;57.45;101743.59;5036510;28;46348;-74
2022/03/09 08:41:08;;;;;;;;;41.25;32.00;;;;;10.34;57.61;101743.53;5036732;28;45318;-74
2022/03/09 08:43:34;;;;;;;;;44.25;37.00;;;;;10.37;58.04;101749.69;5035676;28;45506;-69
2022/03/09 08:46:00;;;;;;;;;37.50;33.50;;;;;10.39;57.17;101739.78;5034284;28;45809;-72
2022/03/09 08:48:26;;;;;;;;;35.75;33.00;;;;;10.46;57.41;101749.38;5035945;28;46300;-70
2022/03/09 08:50:55;;;;;;;;;30.25;29.25;;;;;10.47;58.86;101744.91;5032698;28;45480;-71
2022/03/09 08:53:21;;;;;;;;;37.50;34.00;;;;;10.49;59.60;101745.75;5036985;28;45344;-70
2022/03/09 08:55:47;;;;;;;;;22.00;19.00;;;;;10.51;59.23;101750.16;5036669;28;45322;-69
2022/03/09 08:58:12;;;;;;;;;28.00;24.00;;;;;10.46;60.12;101744.03;5036647;28;45327;-71
2022/03/09 09:00:38;;;;;;;;;35.75;31.75;;;;;10.44;60.88;101740.53;5036483;28;45397;-71
2022/03/09 09:03:03;;;;;;;;;35.00;32.00;;;;;10.46;60.93;101740.50;5037005;28;45395;-70
2022/03/09 09:05:29;;;;;;;;;32.00;30.75;;;;;10.45;60.49;101736.06;5036849;28;45544;-71
2022/03/09 09:07:55;;;;;;;;;34.50;28.00;;;;;10.49;61.13;101733.22;5035779;28;45440;-71
2022/03/09 09:10:20;;;;;;;;;33.75;28.75;;;;;10.58;60.92;101751.72;5036449;28;45354;-69
2022/03/09 09:12:50;;;;;;;;;25.75;24.50;;;;;10.56;61.01;101752.69;5036755;28;45251;-71
2022/03/09 09:15:16;;;;;;;;;27.00;21.25;;;;;10.51;62.52;101744.78;5036383;28;45554;-70
2022/03/09 09:17:41;;;;;;;;;26.25;21.75;;;;;10.52;61.92;101745.66;5036463;28;45946;-70
2022/03/09 09:20:08;;;;;;;;;24.00;20.00;;;;;10.49;63.64;101746.63;5036281;28;45365;-69
2022/03/09 09:22:33;;;;;;;;;19.50;18.25;;;;;10.33;63.63;101729.25;5035306;28;45411;-69
2022/03/09 09:25:00;;;;;;;;;20.75;19.00;;;;;10.38;63.40;101729.13;5036265;28;45442;-71
2022/03/09 09:27:26;;;;;;;;;26.00;21.75;;;;;10.40;64.25;101736.16;5035967;28;47240;-70
2022/03/09 09:29:51;;;;;;;;;17.50;17.50;;;;;10.32;65.13;101742.69;5036033;28;45318;-70
2022/03/09 09:32:16;;;;;;;;;21.75;17.25;;;;;10.36;64.56;101730.97;5035606;28;45339;-71
2022/03/09 09:34:42;;;;;;;;;18.75;17.25;;;;;10.42;64.90;101744.19;5035981;28;45450;-70
2022/03/09 09:37:07;;;;;;;;;17.00;17.00;;;;;10.40;64.91;101730.81;5035802;28;46043;-69
2022/03/09 09:39:32;;;;;;;;;21.00;17.50;;;;;10.50;64.32;101732.31;5035577;28;45289;-70
2022/03/09 09:41:58;;;;;;;;;18.75;15.00;;;;;10.50;64.20;101710.84;5036416;28;45480;-72
2022/03/09 09:44:24;;;;;;;;;15.75;15.25;;;;;10.68;64.56;101711.22;5035424;28;45455;-70
2022/03/09 09:46:50;;;;;;;;;20.00;15.75;;;;;10.76;63.47;101718.09;5035890;28;45370;-72
2022/03/09 09:49:16;;;;;;;;;14.75;14.75;;;;;10.89;63.35;101714.09;5035610;28;45374;-73
2022/03/09 09:51:44;;;;;;;;;18.50;17.00;;;;;10.98;63.25;101710.25;5036183;28;45385;-71
2022/03/09 09:54:10;;;;;;;;;12.75;12.25;;;;;11.06;62.93;101715.38;5035876;28;45487;-72
2022/03/09 09:56:38;;;;;;;;;17.00;17.00;;;;;11.12;62.80;101715.19;5035549;28;46083;-72
2022/03/09 09:59:04;;;;;;;;;14.25;13.25;;;;;11.19;62.46;101706.00;5034510;28;45438;-71
2022/03/09 10:01:30;;;;;;;;;17.00;13.50;;;;;11.18;62.23;101690.81;5035419;28;45424;-71
2022/03/09 10:03:55;;;;;;;;;16.75;14.00;;;;;11.37;61.97;101710.75;5035452;28;45322;-71
2022/03/09 10:06:21;;;;;;;;;13.50;13.00;;;;;11.47;61.83;101701.47;5035487;28;46211;-71
2022/03/09 10:09:00;;;;;;;;;16.25;13.25;;;;;11.57;61.30;101696.66;5035535;28;45194;-72
2022/03/09 10:11:44;;;;;;;;;14.00;13.25;;;;;11.67;61.04;101704.31;5035333;28;45338;-70
2022/03/09 10:14:09;;;;;;;;;15.50;14.00;;;;;11.69;60.83;101706.94;5035509;28;45373;-70
2022/03/09 10:16:34;;;;;;;;;17.00;13.75;;;;;11.70;60.81;101701.53;5035496;28;46338;-70
2022/03/09 10:19:01;;;;;;;;;14.25;12.75;;;;;11.79;61.04;101694.09;5035200;28;45342;-71
2022/03/09 10:21:28;;;;;;;;;14.50;13.50;;;;;11.89;60.75;101698.22;5050441;28;45400;-70
2022/03/09 10:24:03;;;;;;;;;16.50;13.00;;;;;11.91;60.47;101704.44;5035357;28;45520;-71
2022/03/09 10:26:45;;;;;;;;;13.75;11.50;;;;;11.91;60.01;101704.44;5034930;28;46112;-71
2022/03/09 10:29:17;;;;;;;;;13.75;10.25;;;;;11.94;60.10;101693.53;5034229;28;45567;-71
2022/03/09 10:31:47;;;;;;;;;11.50;10.00;;;;;11.95;59.33;101687.25;5035066;28;45402;-71
2022/03/09 10:34:22;;;;;;;;;18.50;11.75;;;;;11.99;59.23;101691.59;5034929;28;45343;-71
2022/03/09 10:37:01;;;;;;;;;14.75;12.75;;;;;12.03;59.43;101691.41;5035077;28;46213;-72
2022/03/09 10:39:33;;;;;;;;;12.75;11.00;;;;;12.07;58.91;101678.75;5034925;28;45338;-72
2022/03/09 10:41:58;;;;;;;;;12.00;6.75;;;;;12.15;58.31;101678.44;5034982;28;45453;-70
2022/03/09 10:44:44;;;;;;;;;9.75;8.00;;;;;12.10;58.04;101682.19;5034234;28;46025;-70
2022/03/09 10:47:11;;;;;;;;;12.50;11.25;;;;;12.19;57.54;101685.44;5035724;28;45932;-71
2022/03/09 10:49:37;;;;;;;;;14.25;11.00;;;;;12.21;58.23;101679.09;5035067;28;45425;-71
2022/03/09 10:52:03;;;;;;;;;8.50;8.25;;;;;12.29;57.70;101682.38;5035125;28;45512;-71
2022/03/09 10:54:34;;;;;;;;;9.00;9.00;;;;;12.34;57.01;101674.97;5035153;28;45405;-71
2022/03/09 10:57:04;;;;;;;;;7.75;7.75;;;;;12.39;57.33;101689.16;5034738;28;46559;-71
2022/03/09 10:59:53;;;;;;;;;8.25;8.00;;;;;12.45;56.83;101686.22;5034172;28;45419;-70
2022/03/09 11:02:22;;;;;;;;;10.50;8.50;;;;;12.55;56.81;101688.56;5034519;28;45399;-71
2022/03/09 11:05:10;;;;;;;;;8.25;7.50;;;;;12.65;56.33;101693.53;5034909;28;45417;-71
2022/03/09 11:07:37;;;;;;;;;11.25;9.25;;;;;12.75;56.42;101692.22;5034492;28;45468;-73
2022/03/09 11:10:04;;;;;;;;;14.50;10.75;;;;;12.87;55.93;101694.41;5034514;28;45283;-75
2022/03/09 11:12:30;;;;;;;;;11.00;11.00;;;;;13.09;55.37;101690.84;5034717;28;45335;-73
2022/03/09 11:14:55;;;;;;;;;14.50;9.00;;;;;13.22;55.16;101690.31;5034656;28;45495;-71
2022/03/09 11:17:24;;;;;;;;;16.25;13.75;;;;;13.38;54.80;101693.22;5032832;28;47955;-72
2022/03/09 11:19:50;;;;;;;;;15.50;15.50;;;;;13.47;54.43;101678.50;5034730;28;45397;-71
2022/03/09 11:22:16;;;;;;;;;11.75;10.75;;;;;13.58;54.18;101690.56;5034423;28;45429;-73
2022/03/09 11:24:42;;;;;;;;;12.00;10.00;;;;;13.64;53.77;101682.22;5034564;28;45504;-71
2022/03/09 11:27:09;;;;;;;;;12.25;11.00;;;;;13.80;53.73;101677.00;5033928;28;46352;-71
2022/03/09 11:29:36;;;;;;;;;13.25;10.75;;;;;13.97;53.51;101662.78;5034508;28;45415;-75
2022/03/09 11:32:07;;;;;;;;;13.25;12.25;;;;;14.19;52.75;101662.69;5034221;28;45444;-77
2022/03/09 11:34:43;;;;;;;;;16.50;11.75;;;;;14.38;52.15;101659.06;5033826;28;45458;-72
2022/03/09 11:37:15;;;;;;;;;13.50;8.25;;;;;14.61;51.86;101658.00;5034766;28;46174;-73
2022/03/09 11:39:44;;;;;;;;;12.25;11.00;;;;;14.83;51.24;101651.53;5034046;28;45469;-74
2022/03/09 11:42:21;;;;;;;;;9.25;9.25;;;;;15.10;50.65;101655.59;5034779;28;45208;-71
2022/03/09 11:44:51;;;;;;;;;12.00;10.25;;;;;15.36;50.19;101648.88;5033713;28;46041;-72
2022/03/09 11:47:18;;;;;;;;;12.75;12.50;;;;;15.70;48.38;101643.47;5033706;28;45508;-71
2022/03/09 11:49:46;;;;;;;;;11.50;11.50;;;;;16.02;48.73;101639.03;5033582;28;45410;-73
2022/03/09 11:52:32;;;;;;;;;12.00;12.00;;;;;16.28;47.49;101638.50;5034205;28;45336;-71
2022/03/09 11:55:02;;;;;;;;;13.25;11.50;;;;;16.62;47.26;101633.94;5033888;28;45216;-69
2022/03/09 11:57:48;;;;;;;;;11.50;11.50;;;;;17.39;45.13;101633.91;5034029;28;45437;-72
2022/03/09 12:00:20;;;;;;;;;11.75;11.25;;;;;17.99;44.03;101618.44;5034185;28;45403;-70
2022/03/09 12:02:56;;;;;;;;;9.50;9.50;;;;;18.49;42.74;101612.47;5034017;28;45417;-71
2022/03/09 12:05:24;;;;;;;;;13.50;11.00;;;;;19.23;40.50;101625.66;5033607;28;45544;-70
2022/03/09 12:07:54;;;;;;;;;12.75;9.25;;;;;19.90;40.03;101618.31;5033630;28;45601;-71
2022/03/09 12:10:50;;;;;;;;;12.25;12.25;;;;;20.81;38.02;101620.78;5033925;28;45265;-71
2022/03/09 12:13:35;;;;;;;;;14.00;14.00;;;;;21.35;37.12;101610.28;5033730;28;45520;-70
2022/03/09 12:16:17;;;;;;;;;10.25;8.00;;;;;21.88;36.16;101606.94;5033741;28;45394;-70
2022/03/09 12:18:49;;;;;;;;;9.25;7.50;;;;;22.63;34.63;101607.19;5033206;28;45410;-70
2022/03/09 12:21:27;;;;;;;;;12.00;10.25;;;;;23.31;33.34;101605.13;5033562;28;45341;-70
2022/03/09 12:24:02;;;;;;;;;8.00;8.00;;;;;23.51;32.82;101607.06;5034284;28;45382;-71
2022/03/09 12:26:41;;;;;;;;;11.00;9.75;;;;;23.41;32.38;101592.41;5032637;28;45802;-74
2022/03/09 12:29:21;;;;;;;;;10.00;8.00;;;;;23.92;32.40;101588.88;5020887;28;46133;-78
2022/03/09 12:31:58;;;;;;;;;10.25;9.75;;;;;24.33;32.78;101585.22;5033737;28;45181;-78
2022/03/09 12:34:32;;;;;;;;;7.75;7.75;;;;;24.73;31.22;101586.06;5033391;28;45401;-76
2022/03/09 12:36:58;;;;;;;;;11.50;8.50;;;;;25.32;30.37;101576.88;5033867;28;45232;-71
2022/03/09 12:39:23;;;;;;;;;46.25;24.00;;;;;25.73;28.34;101577.56;5033517;28;46147;-70
2022/03/09 12:41:54;;;;;;;;;11.00;9.50;;;;;25.45;27.96;101577.44;5033577;28;45432;-73
2022/03/09 12:44:23;;;;;;;;;10.75;8.75;;;;;25.13;28.93;101579.63;5033642;28;45233;-70
2022/03/09 12:46:52;;;;;;;;;10.75;10.75;;;;;25.41;28.70;101570.53;5033413;28;45510;-69
2022/03/09 12:49:21;;;;;;;;;9.00;9.00;;;;;26.04;28.59;101579.06;5033357;28;45387;-70
2022/03/09 12:51:52;;;;;;;;;9.00;7.00;;;;;26.70;26.74;101556.91;5033379;28;45200;-69
2022/03/09 12:54:42;;;;;;;;;7.25;7.25;;;;;27.50;25.64;101573.34;5033300;28;45410;-69
2022/03/09 12:57:14;;;;;;;;;7.75;7.75;;;;;27.97;25.38;101561.16;5034409;28;45556;-70
2022/03/09 13:00:08;;;;;;;;;6.50;6.50;;;;;28.30;24.81;101556.69;5036422;28;45413;-70
2022/03/09 13:02:45;;;;;;;;;6.00;6.00;;;;;28.45;23.90;101550.38;5036499;28;45335;-70
2022/03/09 13:05:17;;;;;;;;;7.00;6.25;;;;;28.64;24.38;101551.13;5032522;28;45498;-71
2022/03/09 13:07:59;;;;;;;;;8.50;6.00;;;;;28.94;24.54;101556.03;5022992;28;45518;-72
2022/03/09 13:10:29;;;;;;;;;7.00;7.00;;;;;28.50;24.34;101541.59;5036560;28;46351;-71
2022/03/09 13:12:56;;;;;;;;;7.50;6.00;;;;;28.19;24.06;101544.06;5036565;28;45310;-72
2022/03/09 13:15:43;;;;;;;;;7.00;7.00;;;;;28.06;23.58;101547.25;5036531;28;45259;-73
2022/03/09 13:18:12;;;;;;;;;6.00;5.00;;;;;27.55;24.27;101550.88;5033034;28;45595;-68
2022/03/09 13:20:41;;;;;;;;;7.50;7.50;;;;;27.39;25.85;101532.28;5029806;28;45346;-70
2022/03/09 13:23:37;;;;;;;;;8.50;7.75;;;;;27.31;25.15;101537.75;5036062;28;45524;-69
2022/03/09 13:26:21;;;;;;;;;5.75;4.75;;;;;27.24;24.85;101542.16;5036467;28;45598;-69
2022/03/09 13:28:52;;;;;;;;;7.00;7.00;;;;;27.46;24.74;101536.16;5035793;28;45543;-70
2022/03/09 13:31:18;;;;;;;;;10.00;10.00;;;;;28.06;23.94;101533.47;5035692;28;45402;-70
2022/03/09 13:33:48;;;;;;;;;9.25;9.25;;;;;28.53;22.94;101527.47;5035094;28;45327;-70
2022/03/09 13:36:15;;;;;;;;;8.50;6.25;;;;;28.50;24.04;101530.56;5051435;28;45276;-69
2022/03/09 13:38:52;;;;;;;;;8.00;7.75;;;;;28.32;24.53;101529.81;5034456;28;45454;-68
2022/03/09 13:41:18;;;;;;;;;8.50;7.50;;;;;28.47;23.15;101525.38;5035888;28;45531;-70
2022/03/09 13:43:43;;;;;;;;;8.00;6.75;;;;;28.28;23.28;101509.97;5035722;28;45424;-70
2022/03/09 13:46:22;;;;;;;;;8.50;8.50;;;;;27.70;23.44;101515.34;5036116;28;45712;-70
2022/03/09 13:48:48;;;;;;;;;7.50;7.50;;;;;27.05;23.78;101512.91;5035383;28;46483;-70
2022/03/09 13:51:13;;;;;;;;;9.00;7.50;;;;;26.93;24.79;101511.44;5035673;28;46448;-70
2022/03/09 13:53:42;;;;;;;;;12.00;9.75;;;;;26.85;24.79;101508.59;5032591;28;45540;-70
2022/03/09 13:56:21;;;;;;;;;11.50;9.75;;;;;26.32;25.23;101506.63;5034470;28;45357;-69
2022/03/09 13:58:50;;;;;;;;;11.00;10.25;;;;;26.05;25.30;101512.09;5028936;28;47248;-70
2022/03/09 14:01:17;;;;;;;;;8.00;8.00;;;;;25.72;25.90;101513.53;5038111;28;46095;-70
2022/03/09 14:03:46;;;;;;;;;10.25;9.25;;;;;25.36;26.42;101515.16;5034667;28;45452;-69
2022/03/09 14:06:22;;;;;;;;;9.25;9.25;;;;;25.42;26.86;101508.25;5035554;28;45337;-70
2022/03/09 14:08:52;;;;;;;;;6.25;6.25;;;;;25.85;26.34;101507.72;5043768;28;45630;-70
2022/03/09 14:11:20;;;;;;;;;11.25;10.25;;;;;26.28;25.85;101512.59;5035469;28;46350;-70
2022/03/09 14:13:57;;;;;;;;;10.75;10.25;;;;;26.63;24.64;101500.78;5035033;28;45403;-70
2022/03/09 14:16:24;;;;;;;;;11.75;11.25;;;;;26.89;25.03;101495.34;5035725;28;45522;-71
2022/03/09 14:18:50;;;;;;;;;12.75;11.25;;;;;26.65;25.29;101487.72;5034121;28;45560;-70
2022/03/09 14:21:15;;;;;;;;;12.00;11.00;;;;;26.21;25.32;101479.31;5035134;28;46285;-71
2022/03/09 14:23:41;;;;;;;;;10.00;9.75;;;;;25.68;26.30;101483.78;5035267;28;45362;-69
2022/03/09 14:26:06;;;;;;;;;13.75;12.00;;;;;25.13;26.70;101473.47;5035190;28;45543;-71
2022/03/09 14:28:32;;;;;;;;;9.75;9.75;;;;;24.66;26.93;101479.81;5033395;28;45407;-70
2022/03/09 14:30:57;;;;;;;;;11.50;11.50;;;;;24.20;28.22;101485.91;5034327;28;46495;-70
2022/03/09 14:33:22;;;;;;;;;12.75;11.00;;;;;23.79;29.26;101484.19;5034252;28;45526;-70
2022/03/09 14:35:48;;;;;;;;;11.00;9.00;;;;;23.62;28.26;101488.44;5034776;28;45737;-71
2022/03/09 14:38:14;;;;;;;;;11.75;11.75;;;;;23.71;28.16;101480.28;5034125;28;45891;-72
2022/03/09 14:40:40;;;;;;;;;16.00;12.00;;;;;23.79;28.62;101485.06;5034880;28;46450;-71
2022/03/09 14:43:06;;;;;;;;;12.75;11.00;;;;;23.99;27.89;101472.28;5034403;28;45280;-70
2022/03/09 14:45:31;;;;;;;;;12.75;11.50;;;;;24.07;27.89;101473.31;5034861;28;45292;-70
2022/03/09 14:48:02;;;;;;;;;13.00;10.50;;;;;23.89;27.59;101483.22;5026764;28;47082;-71
2022/03/09 14:50:28;;;;;;;;;17.00;14.25;;;;;23.81;27.98;101472.09;5033547;28;46485;-69
2022/03/09 14:52:54;;;;;;;;;10.00;9.50;;;;;23.73;28.05;101475.50;5033980;28;45434;-70
2022/03/09 14:55:20;;;;;;;;;15.50;13.00;;;;;23.55;28.62;101462.59;5034988;28;45363;-69
2022/03/09 14:57:47;;;;;;;;;11.25;11.25;;;;;23.51;28.44;101469.34;5034358;28;45544;-70
2022/03/09 15:00:14;;;;;;;;;12.25;10.75;;;;;23.50;28.46;101465.75;5034380;28;46265;-70
2022/03/09 15:02:41;;;;;;;;;12.50;12.50;;;;;23.30;28.36;101470.22;5034460;28;45429;-71
2022/03/09 15:05:06;;;;;;;;;12.75;11.25;;;;;23.08;28.90;101462.13;5034663;28;45483;-69
2022/03/09 15:07:32;;;;;;;;;10.00;6.75;;;;;22.96;29.36;101461.34;5034543;28;45615;-70
2022/03/09 15:10:02;;;;;;;;;12.00;11.00;;;;;22.71;30.06;101458.09;5034719;28;45404;-70
2022/03/09 15:12:28;;;;;;;;;13.50;11.25;;;;;22.51;29.03;101460.66;5034562;28;45431;-69
2022/03/09 15:14:54;;;;;;;;;14.00;14.00;;;;;22.30;29.54;101459.72;5033856;28;45486;-70
2022/03/09 15:17:19;;;;;;;;;12.00;12.00;;;;;22.01;29.75;101467.59;5034037;28;45393;-71
2022/03/09 15:19:45;;;;;;;;;14.00;12.50;;;;;21.72;30.81;101464.47;5049304;28;45386;-69
2022/03/09 15:22:10;;;;;;;;;10.00;8.75;;;;;21.43;30.49;101460.53;5033866;28;45489;-70
2022/03/09 15:24:35;;;;;;;;;15.25;13.25;;;;;21.26;31.86;101464.59;5034958;28;45830;-70
2022/03/09 15:27:01;;;;;;;;;11.75;11.50;;;;;21.24;31.44;101471.16;5034251;28;45309;-70
2022/03/09 15:29:27;;;;;;;;;11.75;9.75;;;;;21.27;33.08;101463.56;5034288;28;45601;-71
2022/03/09 15:31:53;;;;;;;;;12.00;11.00;;;;;21.32;32.12;101461.38;5033652;28;45347;-70
2022/03/09 15:34:19;;;;;;;;;14.25;14.25;;;;;21.32;31.93;101460.50;5034640;28;45352;-70
2022/03/09 15:36:44;;;;;;;;;13.25;13.25;;;;;21.30;31.49;101454.28;5033968;28;45652;-70
2022/03/09 15:39:09;;;;;;;;;14.25;14.25;;;;;21.30;31.79;101457.88;5031935;28;46318;-69
2022/03/09 15:41:35;;;;;;;;;13.50;12.25;;;;;21.28;31.63;101453.53;5034016;28;45418;-69
2022/03/09 15:44:01;;;;;;;;;14.50;11.00;;;;;21.24;31.05;101452.06;5033928;28;45462;-70
2022/03/09 15:46:26;;;;;;;;;13.75;13.75;;;;;21.11;31.70;101454.84;5033847;28;45238;-68
2022/03/09 15:48:52;;;;;;;;;17.00;14.75;;;;;21.06;31.65;101455.22;5034270;28;45260;-70
2022/03/09 15:51:17;;;;;;;;;15.00;13.75;;;;;21.04;31.83;101456.31;5034031;28;45400;-70
2022/03/09 15:53:44;;;;;;;;;14.75;13.50;;;;;20.93;31.63;101448.97;5034132;28;45243;-70
2022/03/09 15:56:10;;;;;;;;;19.25;12.50;;;;;20.85;31.31;101445.09;5049468;28;45568;-69
2022/03/09 15:58:35;;;;;;;;;12.50;12.50;;;;;20.87;31.85;101463.09;5033874;28;46963;-71
2022/03/09 16:01:01;;;;;;;;;18.75;16.25;;;;;20.79;32.35;101443.72;5033859;28;45296;-70
2022/03/09 16:03:26;;;;;;;;;9.25;8.25;;;;;20.75;31.93;101450.41;5034159;28;45548;-70
2022/03/09 16:05:52;;;;;;;;;12.75;10.50;;;;;20.60;31.93;101467.91;5033882;28;45307;-70
2022/03/09 16:08:18;;;;;;;;;13.25;11.00;;;;;20.48;32.29;101463.44;5033937;28;46048;-70
2022/03/09 16:10:44;;;;;;;;;12.25;12.00;;;;;20.45;32.24;101463.66;5033790;28;45293;-68
2022/03/09 16:13:10;;;;;;;;;13.00;13.00;;;;;20.42;32.43;101458.41;5033718;28;45322;-69
2022/03/09 16:15:35;;;;;;;;;13.00;11.75;;;;;20.39;33.66;101468.59;5034144;28;45362;-70
2022/03/09 16:18:01;;;;;;;;;14.75;12.75;;;;;20.32;32.33;101470.00;5033609;28;46277;-71
2022/03/09 16:20:26;;;;;;;;;15.50;13.25;;;;;20.23;32.20;101461.66;5033744;28;45277;-72
2022/03/09 16:22:52;;;;;;;;;20.50;16.75;;;;;20.17;32.52;101470.25;5034104;28;45664;-73
2022/03/09 16:25:17;;;;;;;;;14.00;14.00;;;;;20.08;33.02;101465.50;5033620;28;45453;-76
2022/03/09 16:27:42;;;;;;;;;22.25;16.50;;;;;20.06;33.13;101472.94;5033387;28;46456;-71
2022/03/09 16:30:08;;;;;;;;;15.75;14.00;;;;;20.06;32.95;101473.81;5033649;28;45165;-72
2022/03/09 16:32:34;;;;;;;;;15.00;15.00;;;;;20.03;32.74;101466.72;5035098;28;45459;-74
2022/03/09 16:35:03;;;;;;;;;19.25;14.00;;;;;19.97;33.06;101463.59;5036940;28;45554;-72
2022/03/09 16:37:29;;;;;;;;;17.25;17.25;;;;;19.96;33.49;101465.44;5037213;28;46363;-74
2022/03/09 16:39:54;;;;;;;;;14.75;11.75;;;;;19.74;32.77;101458.94;5036904;28;45342;-74
2022/03/09 16:42:19;;;;;;;;;18.25;17.00;;;;;19.64;33.21;101465.06;5037278;28;45331;-75
2022/03/09 16:44:45;;;;;;;;;21.00;18.00;;;;;19.55;33.58;101465.75;5036642;28;45313;-74
2022/03/09 16:47:10;;;;;;;;;18.50;16.00;;;;;19.49;33.56;101468.00;5034771;28;45359;-72
2022/03/09 16:49:36;;;;;;;;;13.00;13.00;;;;;19.32;33.52;101457.41;5036640;28;45368;-75